Skip to main content.

Regional Weather Summary







Station Name-Location
 
Time
 
Baro
Pressure
Outside
Temp
 Temp
Max
Temp
Min
Dew
Point
RH
%
Wind
Speed
Average
Wind Dir
Wind Max
Last Hr
Wind
Gust Max
Rain
Today
Rain
Last Hr
Rain Rate
in/hr
Rain
Month
Rain
Year
Vermilionweather-Near Lake Vermilion01:06:0629.96 inHg    50.5°F 53.1°F50.5°F45.0°F81%0.0 mph WNW0.0 mph 0.0 mph 0.00in0.00in0.00in/hr3.42in29.62in
EMA HQ's-Home Gardens01:06:000.00 inHg     53.4°F    54.0°F53.2°F43.5°F69%0.0 mph North0.0 mph 0.0 mph 0.00in0.00in0.00in/hr4.01in27.93in
Mahomet01:06:0329.98 inHg    52.2°F 54.0°F52.2°F45.9°F79%0.8 mph South4.6 mph 4.6 mph 0.00in0.00in0.00in/hr2.61in34.98in

Version 2.12 6th August 2012

If you own a personal weather station
and would like to have your data displayed here,
use the "Contact admin" link at the bottom of the page
to find out how.

For full weather information visit the individual websites above
This page was created by Clevedon Weather using some basic php scripts from TNET Weather.
The script for displaying the data has been produced by Clevedon Weather but has been modified by Vermilionweather.com for it's own use.



Nearby METAR Reports

Nearby METAR Reports

 

KDNV - Danville, Illinois, USA
Distance from station: 0 0mi, 0km
Updated: Sun, 26-Sep-2021 12:55am CDT
Clear
Clear
 Wind from SSW
Wind: SSW 3 mph , 6 km/h
Temperature: 50°F , 10°C
Dew Point: 46°F , 8°C
Humidity: 88%
Barometer: 30.07 inHg , 1018.3 hPa
Clouds: Clear
Visibility: 10 miles , 16 km
2021/09/26 05:55 KDNV 260555Z AUTO 20003KT 10SM CLR 10/08 A3007 RMK AO2 T01000075 10162 20099 402210099
KTIP - Rantoul, Illinois, USA
Distance from station: W 30mi, 48km
Updated: Sun, 26-Sep-2021 12:35am CDT
Partly Cloudy
Partly Cloudy
 Wind from SW
Wind: SW 5 mph , 7 km/h
Temperature: 50°F , 10°C
Wind Chill: 48°F , 9°C
Dew Point: 43°F , 6°C
Humidity: 76%
Barometer: 30.06 inHg , 1017.9 hPa
Clouds: Partly Cloudy
Visibility: 10 miles , 16 km
Cloud details: Partly Cloudy 12000 ft
2021/09/26 05:35 KTIP 260535Z AUTO 22004KT 10SM SCT120 10/06 A3006 RMK AO2 T01030057
 
KPRG - Paris, Illinois, USA
Distance from station: S 35mi, 56km
Updated: Sun, 26-Sep-2021 12:55am CDT
Clear
Clear
 Wind from calm
Wind: Calm
Temperature: 46°F , 8°C
Dew Point: 45°F , 7°C
Humidity: 93%
Barometer: 30.08 inHg , 1018.6 hPa
Clouds: Clear
Visibility: 10 miles , 16 km
2021/09/26 05:55 KPRG 260555Z AUTO 00000KT 10SM CLR 08/07 A3008 RMK AO2 T00820066 10165 20080 402210080
KCMI - Champaign/Urbana, Illinois, USA
Distance from station: WSW 37mi, 60km
Updated: Sun, 26-Sep-2021 12:53am CDT
Clear
Clear
 Wind from SSW
Wind: SSW 7 mph , 11 km/h
Temperature: 46°F , 8°C
Wind Chill: 42°F , 6°C
Dew Point: 43°F , 6°C
Humidity: 87%
Barometer: 30.06 inHg , 1017.9 hPa
Clouds: Clear
Visibility: 10 miles , 16 km
2021/09/26 05:53 KCMI 260553Z AUTO 20006KT 10SM CLR 08/06 A3006 RMK AO2 SLP179 T00830056 10167 20078 402220078 56001
 
KLAF - Lafayette, Indiana, USA
Distance from station: ENE 38mi, 61km
Updated: Sun, 26-Sep-2021 12:54am CDT
Clear
Clear
 
Temperature: 48°F , 9°C
Dew Point: 46°F , 8°C
Humidity: 94%
Barometer: 30.04 inHg , 1017.3 hPa
Clouds: Clear
Visibility: 10 miles , 16 km
2021/09/26 05:54 KLAF 260554Z AUTO 10SM CLR 09/08 A3004 RMK AO2 SLP173 T00940083 10150 20094 50001 $
KCFJ - Crawfordsville, Indiana, USA
Distance from station: ESE 39mi, 63km
Updated: Sun, 26-Sep-2021 12:55am CDT
Clear
Clear
 Wind from calm
Wind: Calm
Temperature: 43°F , 6°C
Dew Point: 41°F , 5°C
Humidity: 93%
Barometer: 30.06 inHg , 1017.9 hPa
Clouds: Clear
Visibility: 10 miles , 16 km
2021/09/26 05:55 KCFJ 260555Z AUTO 00000KT 10SM CLR 06/05 A3006 RMK AO2 T00590050 10133 20058

Metar display script from Saratoga-Weather.org

Go To Top